sensor_id;sensor_type;location;lat;lon;timestamp;P1;durP1;ratioP1;P2;durP2;ratioP2
20381;SDS011;10350;51.280;12.400;2023-10-13T00:01:18;58.35;;;54.92;;
20381;SDS011;10350;51.280;12.400;2023-10-13T00:03:44;55.88;;;52.65;;
20381;SDS011;10350;51.280;12.400;2023-10-13T00:06:10;57.47;;;53.50;;
20381;SDS011;10350;51.280;12.400;2023-10-13T00:08:36;60.20;;;56.58;;
20381;SDS011;10350;51.280;12.400;2023-10-13T00:11:04;61.10;;;57.55;;
20381;SDS011;10350;51.280;12.400;2023-10-13T00:13:30;60.70;;;56.85;;
20381;SDS011;10350;51.280;12.400;2023-10-13T00:16:07;59.97;;;56.47;;
20381;SDS011;10350;51.280;12.400;2023-10-13T00:18:35;61.55;;;57.88;;
20381;SDS011;10350;51.280;12.400;2023-10-13T00:21:07;56.33;;;53.03;;
20381;SDS011;10350;51.280;12.400;2023-10-13T00:23:40;57.83;;;54.15;;
20381;SDS011;10350;51.280;12.400;2023-10-13T00:26:27;56.40;;;53.00;;
20381;SDS011;10350;51.280;12.400;2023-10-13T00:28:53;63.28;;;59.28;;
20381;SDS011;10350;51.280;12.400;2023-10-13T00:31:29;59.45;;;55.85;;
20381;SDS011;10350;51.280;12.400;2023-10-13T00:33:58;58.38;;;54.88;;
20381;SDS011;10350;51.280;12.400;2023-10-13T00:36:50;55.88;;;52.67;;
20381;SDS011;10350;51.280;12.400;2023-10-13T00:39:36;60.70;;;57.00;;
20381;SDS011;10350;51.280;12.400;2023-10-13T00:42:02;59.85;;;56.42;;
20381;SDS011;10350;51.280;12.400;2023-10-13T00:44:32;57.42;;;54.05;;
20381;SDS011;10350;51.280;12.400;2023-10-13T00:47:09;56.65;;;53.35;;
20381;SDS011;10350;51.280;12.400;2023-10-13T00:49:41;60.38;;;56.78;;
20381;SDS011;10350;51.280;12.400;2023-10-13T00:52:12;60.47;;;56.97;;
20381;SDS011;10350;51.280;12.400;2023-10-13T00:54:40;55.67;;;52.28;;
20381;SDS011;10350;51.280;12.400;2023-10-13T00:57:06;54.28;;;51.20;;
20381;SDS011;10350;51.280;12.400;2023-10-13T00:59:37;54.90;;;51.58;;
20381;SDS011;10350;51.280;12.400;2023-10-13T01:02:10;53.95;;;50.85;;
20381;SDS011;10350;51.280;12.400;2023-10-13T01:04:54;55.55;;;52.42;;
20381;SDS011;10350;51.280;12.400;2023-10-13T01:07:20;57.22;;;53.80;;
20381;SDS011;10350;51.280;12.400;2023-10-13T01:09:48;57.65;;;54.20;;
20381;SDS011;10350;51.280;12.400;2023-10-13T01:12:14;57.83;;;54.58;;
20381;SDS011;10350;51.280;12.400;2023-10-13T01:14:40;58.38;;;54.92;;
20381;SDS011;10350;51.280;12.400;2023-10-13T01:17:06;58.33;;;54.97;;
20381;SDS011;10350;51.280;12.400;2023-10-13T01:19:35;57.30;;;53.92;;
20381;SDS011;10350;51.280;12.400;2023-10-13T01:22:08;55.53;;;52.33;;
20381;SDS011;10350;51.280;12.400;2023-10-13T01:24:34;60.05;;;56.47;;
20381;SDS011;10350;51.280;12.400;2023-10-13T01:27:01;59.50;;;56.00;;
20381;SDS011;10350;51.280;12.400;2023-10-13T01:29:53;54.45;;;50.90;;
20381;SDS011;10350;51.280;12.400;2023-10-13T01:32:31;57.60;;;54.13;;
20381;SDS011;10350;51.280;12.400;2023-10-13T01:34:57;57.80;;;54.55;;
20381;SDS011;10350;51.280;12.400;2023-10-13T01:37:30;55.13;;;51.72;;
20381;SDS011;10350;51.280;12.400;2023-10-13T01:39:56;59.83;;;56.28;;
20381;SDS011;10350;51.280;12.400;2023-10-13T01:42:22;57.05;;;53.60;;
20381;SDS011;10350;51.280;12.400;2023-10-13T01:44:49;58.80;;;55.22;;
20381;SDS011;10350;51.280;12.400;2023-10-13T01:47:15;57.05;;;53.67;;
20381;SDS011;10350;51.280;12.400;2023-10-13T01:49:42;55.80;;;52.70;;
20381;SDS011;10350;51.280;12.400;2023-10-13T01:52:09;57.67;;;54.40;;
20381;SDS011;10350;51.280;12.400;2023-10-13T01:54:40;59.03;;;55.58;;
20381;SDS011;10350;51.280;12.400;2023-10-13T01:57:09;57.42;;;54.15;;
20381;SDS011;10350;51.280;12.400;2023-10-13T01:59:43;56.78;;;53.58;;
20381;SDS011;10350;51.280;12.400;2023-10-13T02:02:12;60.38;;;57.05;;
20381;SDS011;10350;51.280;12.400;2023-10-13T02:04:41;61.75;;;58.20;;
20381;SDS011;10350;51.280;12.400;2023-10-13T02:07:14;56.13;;;52.92;;
20381;SDS011;10350;51.280;12.400;2023-10-13T02:09:40;59.78;;;56.35;;
20381;SDS011;10350;51.280;12.400;2023-10-13T02:12:08;54.17;;;51.10;;
20381;SDS011;10350;51.280;12.400;2023-10-13T02:14:34;57.08;;;53.90;;
20381;SDS011;10350;51.280;12.400;2023-10-13T02:17:03;59.13;;;55.80;;
20381;SDS011;10350;51.280;12.400;2023-10-13T02:19:51;54.17;;;51.05;;
20381;SDS011;10350;51.280;12.400;2023-10-13T02:22:19;56.35;;;53.17;;
20381;SDS011;10350;51.280;12.400;2023-10-13T02:24:57;55.22;;;52.03;;
20381;SDS011;10350;51.280;12.400;2023-10-13T02:27:27;55.75;;;52.65;;
20381;SDS011;10350;51.280;12.400;2023-10-13T02:29:53;58.35;;;55.08;;
20381;SDS011;10350;51.280;12.400;2023-10-13T02:32:23;57.22;;;53.90;;
20381;SDS011;10350;51.280;12.400;2023-10-13T02:34:51;55.17;;;51.88;;
20381;SDS011;10350;51.280;12.400;2023-10-13T02:37:17;55.78;;;52.70;;
20381;SDS011;10350;51.280;12.400;2023-10-13T02:39:45;56.15;;;53.03;;
20381;SDS011;10350;51.280;12.400;2023-10-13T02:42:11;56.63;;;53.05;;
20381;SDS011;10350;51.280;12.400;2023-10-13T02:44:48;54.03;;;50.90;;
20381;SDS011;10350;51.280;12.400;2023-10-13T02:47:14;58.28;;;54.90;;
20381;SDS011;10350;51.280;12.400;2023-10-13T02:49:40;54.72;;;51.53;;
20381;SDS011;10350;51.280;12.400;2023-10-13T02:52:11;53.50;;;50.35;;
20381;SDS011;10350;51.280;12.400;2023-10-13T02:54:38;58.92;;;55.22;;
20381;SDS011;10350;51.280;12.400;2023-10-13T02:57:15;58.88;;;55.30;;
20381;SDS011;10350;51.280;12.400;2023-10-13T02:59:41;58.90;;;55.42;;
20381;SDS011;10350;51.280;12.400;2023-10-13T03:02:21;56.92;;;53.67;;
20381;SDS011;10350;51.280;12.400;2023-10-13T03:04:47;60.15;;;56.38;;
20381;SDS011;10350;51.280;12.400;2023-10-13T03:07:13;57.08;;;53.63;;
20381;SDS011;10350;51.280;12.400;2023-10-13T03:09:41;52.03;;;49.03;;
20381;SDS011;10350;51.280;12.400;2023-10-13T03:12:15;59.58;;;55.92;;
20381;SDS011;10350;51.280;12.400;2023-10-13T03:14:41;58.35;;;54.50;;
20381;SDS011;10350;51.280;12.400;2023-10-13T03:17:12;54.47;;;50.85;;
20381;SDS011;10350;51.280;12.400;2023-10-13T03:19:47;56.55;;;52.42;;
20381;SDS011;10350;51.280;12.400;2023-10-13T03:22:16;53.15;;;50.00;;
20381;SDS011;10350;51.280;12.400;2023-10-13T03:24:43;56.63;;;53.13;;
20381;SDS011;10350;51.280;12.400;2023-10-13T03:27:11;53.45;;;50.22;;
20381;SDS011;10350;51.280;12.400;2023-10-13T03:29:40;54.92;;;51.72;;
20381;SDS011;10350;51.280;12.400;2023-10-13T03:34:40;55.97;;;52.30;;
20381;SDS011;10350;51.280;12.400;2023-10-13T03:37:14;52.88;;;49.67;;
20381;SDS011;10350;51.280;12.400;2023-10-13T03:39:44;58.03;;;54.20;;
20381;SDS011;10350;51.280;12.400;2023-10-13T03:42:11;57.53;;;54.08;;
20381;SDS011;10350;51.280;12.400;2023-10-13T03:44:44;57.40;;;53.97;;
20381;SDS011;10350;51.280;12.400;2023-10-13T03:47:11;56.30;;;52.75;;
20381;SDS011;10350;51.280;12.400;2023-10-13T03:49:44;62.35;;;58.72;;
20381;SDS011;10350;51.280;12.400;2023-10-13T03:52:10;56.47;;;53.30;;
20381;SDS011;10350;51.280;12.400;2023-10-13T03:54:39;56.47;;;53.15;;
20381;SDS011;10350;51.280;12.400;2023-10-13T03:57:06;53.50;;;50.53;;
20381;SDS011;10350;51.280;12.400;2023-10-13T03:59:36;55.22;;;51.97;;
20381;SDS011;10350;51.280;12.400;2023-10-13T04:02:02;55.75;;;52.58;;
20381;SDS011;10350;51.280;12.400;2023-10-13T04:04:37;57.28;;;53.92;;
20381;SDS011;10350;51.280;12.400;2023-10-13T04:07:14;58.03;;;54.43;;
20381;SDS011;10350;51.280;12.400;2023-10-13T04:10:07;50.92;;;48.08;;
20381;SDS011;10350;51.280;12.400;2023-10-13T04:12:51;53.78;;;50.65;;
20381;SDS011;10350;51.280;12.400;2023-10-13T04:15:36;52.08;;;49.08;;
20381;SDS011;10350;51.280;12.400;2023-10-13T04:18:08;56.30;;;52.80;;
20381;SDS011;10350;51.280;12.400;2023-10-13T04:20:58;53.55;;;50.38;;
20381;SDS011;10350;51.280;12.400;2023-10-13T04:23:43;54.67;;;51.58;;
20381;SDS011;10350;51.280;12.400;2023-10-13T04:26:28;53.70;;;50.58;;
20381;SDS011;10350;51.280;12.400;2023-10-13T04:29:02;60.55;;;57.05;;
20381;SDS011;10350;51.280;12.400;2023-10-13T04:31:35;56.65;;;52.97;;
20381;SDS011;10350;51.280;12.400;2023-10-13T04:34:24;55.25;;;52.13;;
20381;SDS011;10350;51.280;12.400;2023-10-13T04:37:02;54.75;;;51.47;;
20381;SDS011;10350;51.280;12.400;2023-10-13T04:40:07;55.05;;;51.72;;
20381;SDS011;10350;51.280;12.400;2023-10-13T04:42:36;59.03;;;55.42;;
20381;SDS011;10350;51.280;12.400;2023-10-13T04:45:15;58.50;;;55.05;;
20381;SDS011;10350;51.280;12.400;2023-10-13T04:48:00;57.45;;;53.88;;
20381;SDS011;10350;51.280;12.400;2023-10-13T04:51:00;54.75;;;51.45;;
20381;SDS011;10350;51.280;12.400;2023-10-13T04:54:04;52.97;;;49.58;;
20381;SDS011;10350;51.280;12.400;2023-10-13T04:56:50;57.25;;;53.60;;
20381;SDS011;10350;51.280;12.400;2023-10-13T04:59:35;55.53;;;51.97;;
20381;SDS011;10350;51.280;12.400;2023-10-13T05:02:02;62.30;;;58.60;;
20381;SDS011;10350;51.280;12.400;2023-10-13T05:04:47;59.00;;;55.08;;
20381;SDS011;10350;51.280;12.400;2023-10-13T05:07:31;59.78;;;56.17;;
20381;SDS011;10350;51.280;12.400;2023-10-13T05:10:16;59.53;;;55.65;;
20381;SDS011;10350;51.280;12.400;2023-10-13T05:13:02;59.08;;;55.45;;
20381;SDS011;10350;51.280;12.400;2023-10-13T05:15:47;56.92;;;53.38;;
20381;SDS011;10350;51.280;12.400;2023-10-13T05:18:32;54.97;;;51.50;;
20381;SDS011;10350;51.280;12.400;2023-10-13T05:21:17;55.80;;;52.47;;
20381;SDS011;10350;51.280;12.400;2023-10-13T05:24:03;53.28;;;50.17;;
20381;SDS011;10350;51.280;12.400;2023-10-13T05:26:48;55.13;;;51.60;;
20381;SDS011;10350;51.280;12.400;2023-10-13T05:29:32;54.95;;;51.45;;
20381;SDS011;10350;51.280;12.400;2023-10-13T05:32:17;55.45;;;51.80;;
20381;SDS011;10350;51.280;12.400;2023-10-13T05:35:02;55.78;;;52.13;;
20381;SDS011;10350;51.280;12.400;2023-10-13T05:37:47;55.42;;;52.03;;
20381;SDS011;10350;51.280;12.400;2023-10-13T05:40:31;56.97;;;53.55;;
20381;SDS011;10350;51.280;12.400;2023-10-13T05:43:16;59.17;;;55.58;;
20381;SDS011;10350;51.280;12.400;2023-10-13T05:46:01;56.65;;;53.22;;
20381;SDS011;10350;51.280;12.400;2023-10-13T05:48:47;60.00;;;55.88;;
20381;SDS011;10350;51.280;12.400;2023-10-13T05:54:17;52.97;;;49.80;;
20381;SDS011;10350;51.280;12.400;2023-10-13T05:56:44;55.92;;;52.58;;
20381;SDS011;10350;51.280;12.400;2023-10-13T05:59:30;57.95;;;54.38;;
20381;SDS011;10350;51.280;12.400;2023-10-13T06:02:15;55.33;;;52.00;;
20381;SDS011;10350;51.280;12.400;2023-10-13T06:07:48;58.38;;;54.55;;
20381;SDS011;10350;51.280;12.400;2023-10-13T06:10:33;61.70;;;57.88;;
20381;SDS011;10350;51.280;12.400;2023-10-13T06:13:18;60.75;;;56.95;;
20381;SDS011;10350;51.280;12.400;2023-10-13T06:16:06;64.47;;;60.60;;
20381;SDS011;10350;51.280;12.400;2023-10-13T06:18:51;60.25;;;56.42;;
20381;SDS011;10350;51.280;12.400;2023-10-13T06:21:35;60.40;;;57.00;;
20381;SDS011;10350;51.280;12.400;2023-10-13T06:24:20;62.42;;;58.67;;
20381;SDS011;10350;51.280;12.400;2023-10-13T06:27:05;63.78;;;59.58;;
20381;SDS011;10350;51.280;12.400;2023-10-13T06:29:49;62.90;;;59.03;;
20381;SDS011;10350;51.280;12.400;2023-10-13T06:32:18;64.93;;;61.00;;
20381;SDS011;10350;51.280;12.400;2023-10-13T06:34:44;66.57;;;62.55;;
20381;SDS011;10350;51.280;12.400;2023-10-13T06:37:14;68.88;;;64.70;;
20381;SDS011;10350;51.280;12.400;2023-10-13T06:39:51;66.80;;;62.67;;
20381;SDS011;10350;51.280;12.400;2023-10-13T06:42:21;69.00;;;64.93;;
20381;SDS011;10350;51.280;12.400;2023-10-13T06:44:47;71.55;;;67.38;;
20381;SDS011;10350;51.280;12.400;2023-10-13T06:47:13;71.47;;;67.13;;
20381;SDS011;10350;51.280;12.400;2023-10-13T06:49:40;70.20;;;65.47;;
20381;SDS011;10350;51.280;12.400;2023-10-13T06:52:08;69.50;;;65.43;;
20381;SDS011;10350;51.280;12.400;2023-10-13T06:54:34;65.97;;;62.15;;
20381;SDS011;10350;51.280;12.400;2023-10-13T06:57:00;70.63;;;66.60;;
20381;SDS011;10350;51.280;12.400;2023-10-13T06:59:32;69.63;;;65.57;;
20381;SDS011;10350;51.280;12.400;2023-10-13T07:02:01;70.97;;;66.75;;
20381;SDS011;10350;51.280;12.400;2023-10-13T07:04:31;76.03;;;71.75;;
20381;SDS011;10350;51.280;12.400;2023-10-13T07:06:57;72.05;;;67.85;;
20381;SDS011;10350;51.280;12.400;2023-10-13T07:09:26;71.00;;;66.70;;
20381;SDS011;10350;51.280;12.400;2023-10-13T07:12:01;67.57;;;63.78;;
20381;SDS011;10350;51.280;12.400;2023-10-13T07:14:28;65.50;;;61.75;;
20381;SDS011;10350;51.280;12.400;2023-10-13T07:17:00;64.22;;;60.55;;
20381;SDS011;10350;51.280;12.400;2023-10-13T07:19:27;68.18;;;64.05;;
20381;SDS011;10350;51.280;12.400;2023-10-13T07:21:57;69.38;;;65.50;;
20381;SDS011;10350;51.280;12.400;2023-10-13T07:24:27;63.47;;;59.70;;
20381;SDS011;10350;51.280;12.400;2023-10-13T07:26:59;64.20;;;60.60;;
20381;SDS011;10350;51.280;12.400;2023-10-13T07:29:33;65.20;;;61.60;;
20381;SDS011;10350;51.280;12.400;2023-10-13T07:32:00;62.67;;;58.97;;
20381;SDS011;10350;51.280;12.400;2023-10-13T07:34:37;64.53;;;60.47;;
20381;SDS011;10350;51.280;12.400;2023-10-13T07:37:04;62.05;;;58.45;;
20381;SDS011;10350;51.280;12.400;2023-10-13T07:39:37;63.08;;;59.38;;
20381;SDS011;10350;51.280;12.400;2023-10-13T07:42:07;59.50;;;56.05;;
20381;SDS011;10350;51.280;12.400;2023-10-13T07:44:46;57.42;;;54.22;;
20381;SDS011;10350;51.280;12.400;2023-10-13T07:47:13;63.90;;;60.35;;
20381;SDS011;10350;51.280;12.400;2023-10-13T07:49:43;57.67;;;54.38;;
20381;SDS011;10350;51.280;12.400;2023-10-13T07:52:10;59.85;;;56.22;;
20381;SDS011;10350;51.280;12.400;2023-10-13T07:54:48;64.05;;;60.20;;
20381;SDS011;10350;51.280;12.400;2023-10-13T07:57:30;62.17;;;58.63;;
20381;SDS011;10350;51.280;12.400;2023-10-13T07:59:56;60.47;;;57.05;;
20381;SDS011;10350;51.280;12.400;2023-10-13T08:02:42;63.85;;;60.25;;
20381;SDS011;10350;51.280;12.400;2023-10-13T08:05:15;62.05;;;58.63;;
20381;SDS011;10350;51.280;12.400;2023-10-13T08:07:54;61.95;;;58.45;;
20381;SDS011;10350;51.280;12.400;2023-10-13T08:10:21;65.30;;;61.67;;
20381;SDS011;10350;51.280;12.400;2023-10-13T08:12:54;63.95;;;60.30;;
20381;SDS011;10350;51.280;12.400;2023-10-13T08:15:22;61.95;;;57.97;;
20381;SDS011;10350;51.280;12.400;2023-10-13T08:18:01;63.47;;;59.88;;
20381;SDS011;10350;51.280;12.400;2023-10-13T08:20:42;57.55;;;54.22;;
20381;SDS011;10350;51.280;12.400;2023-10-13T08:23:09;62.80;;;59.25;;
20381;SDS011;10350;51.280;12.400;2023-10-13T08:25:55;62.83;;;59.33;;
20381;SDS011;10350;51.280;12.400;2023-10-13T08:28:53;63.08;;;59.17;;
20381;SDS011;10350;51.280;12.400;2023-10-13T08:31:19;63.05;;;59.45;;
20381;SDS011;10350;51.280;12.400;2023-10-13T08:33:50;64.45;;;60.80;;
20381;SDS011;10350;51.280;12.400;2023-10-13T08:36:31;60.15;;;56.72;;
20381;SDS011;10350;51.280;12.400;2023-10-13T08:38:58;62.25;;;58.63;;
20381;SDS011;10350;51.280;12.400;2023-10-13T08:41:41;60.22;;;56.72;;
20381;SDS011;10350;51.280;12.400;2023-10-13T08:44:23;59.58;;;56.05;;
20381;SDS011;10350;51.280;12.400;2023-10-13T08:46:59;62.92;;;59.38;;
20381;SDS011;10350;51.280;12.400;2023-10-13T08:49:28;65.47;;;61.75;;
20381;SDS011;10350;51.280;12.400;2023-10-13T08:51:57;63.63;;;60.05;;
20381;SDS011;10350;51.280;12.400;2023-10-13T08:54:32;58.90;;;55.67;;
20381;SDS011;10350;51.280;12.400;2023-10-13T08:57:10;60.40;;;57.05;;
20381;SDS011;10350;51.280;12.400;2023-10-13T08:59:55;60.03;;;56.45;;
20381;SDS011;10350;51.280;12.400;2023-10-13T09:02:28;63.33;;;59.53;;
20381;SDS011;10350;51.280;12.400;2023-10-13T09:05:13;62.88;;;59.28;;
20381;SDS011;10350;51.280;12.400;2023-10-13T09:07:58;64.45;;;60.90;;
20381;SDS011;10350;51.280;12.400;2023-10-13T09:10:34;65.78;;;62.00;;
20381;SDS011;10350;51.280;12.400;2023-10-13T09:13:09;64.80;;;61.15;;
20381;SDS011;10350;51.280;12.400;2023-10-13T09:15:36;65.82;;;61.97;;
20381;SDS011;10350;51.280;12.400;2023-10-13T09:18:24;69.30;;;65.25;;
20381;SDS011;10350;51.280;12.400;2023-10-13T09:21:07;66.18;;;62.25;;
20381;SDS011;10350;51.280;12.400;2023-10-13T09:23:59;62.95;;;59.45;;
20381;SDS011;10350;51.280;12.400;2023-10-13T09:26:58;65.63;;;61.47;;
20381;SDS011;10350;51.280;12.400;2023-10-13T09:29:26;71.40;;;66.82;;
20381;SDS011;10350;51.280;12.400;2023-10-13T09:31:58;64.38;;;60.55;;
20381;SDS011;10350;51.280;12.400;2023-10-13T09:34:25;69.25;;;65.15;;
20381;SDS011;10350;51.280;12.400;2023-10-13T09:37:00;68.22;;;64.22;;
20381;SDS011;10350;51.280;12.400;2023-10-13T09:39:28;66.75;;;62.72;;
20381;SDS011;10350;51.280;12.400;2023-10-13T09:42:10;66.35;;;62.53;;
20381;SDS011;10350;51.280;12.400;2023-10-13T09:44:37;69.95;;;65.97;;
20381;SDS011;10350;51.280;12.400;2023-10-13T09:47:05;70.75;;;66.15;;
20381;SDS011;10350;51.280;12.400;2023-10-13T09:49:43;63.90;;;60.28;;
20381;SDS011;10350;51.280;12.400;2023-10-13T09:52:12;66.90;;;63.05;;
20381;SDS011;10350;51.280;12.400;2023-10-13T09:54:44;68.68;;;64.63;;
20381;SDS011;10350;51.280;12.400;2023-10-13T09:57:17;67.22;;;63.40;;
20381;SDS011;10350;51.280;12.400;2023-10-13T09:59:46;65.97;;;62.22;;
20381;SDS011;10350;51.280;12.400;2023-10-13T10:02:17;65.05;;;61.30;;
20381;SDS011;10350;51.280;12.400;2023-10-13T10:04:56;66.97;;;63.25;;
20381;SDS011;10350;51.280;12.400;2023-10-13T10:07:37;64.13;;;59.92;;
20381;SDS011;10350;51.280;12.400;2023-10-13T10:10:04;72.20;;;68.10;;
20381;SDS011;10350;51.280;12.400;2023-10-13T10:15:55;65.35;;;61.05;;
20381;SDS011;10350;51.280;12.400;2023-10-13T10:18:22;68.05;;;64.00;;
20381;SDS011;10350;51.280;12.400;2023-10-13T10:20:50;65.63;;;61.58;;
20381;SDS011;10350;51.280;12.400;2023-10-13T10:23:51;66.43;;;62.60;;
20381;SDS011;10350;51.280;12.400;2023-10-13T10:26:14;63.85;;;60.13;;
20381;SDS011;10350;51.280;12.400;2023-10-13T10:28:45;63.92;;;59.45;;
20381;SDS011;10350;51.280;12.400;2023-10-13T10:31:11;69.93;;;65.50;;
20381;SDS011;10350;51.280;12.400;2023-10-13T10:33:42;66.32;;;62.55;;
20381;SDS011;10350;51.280;12.400;2023-10-13T10:36:09;71.00;;;66.75;;
20381;SDS011;10350;51.280;12.400;2023-10-13T10:38:51;66.28;;;62.50;;
20381;SDS011;10350;51.280;12.400;2023-10-13T10:41:24;67.20;;;63.28;;
20381;SDS011;10350;51.280;12.400;2023-10-13T10:43:54;67.50;;;63.50;;
20381;SDS011;10350;51.280;12.400;2023-10-13T10:46:27;72.22;;;68.00;;
20381;SDS011;10350;51.280;12.400;2023-10-13T10:48:56;69.90;;;65.88;;
20381;SDS011;10350;51.280;12.400;2023-10-13T10:51:29;67.53;;;63.63;;
20381;SDS011;10350;51.280;12.400;2023-10-13T10:53:57;66.53;;;62.85;;
20381;SDS011;10350;51.280;12.400;2023-10-13T10:56:42;67.13;;;63.05;;
20381;SDS011;10350;51.280;12.400;2023-10-13T10:59:08;62.47;;;58.83;;
20381;SDS011;10350;51.280;12.400;2023-10-13T11:01:45;64.15;;;60.45;;
20381;SDS011;10350;51.280;12.400;2023-10-13T11:04:17;66.10;;;62.40;;
20381;SDS011;10350;51.280;12.400;2023-10-13T11:06:47;69.18;;;65.15;;
20381;SDS011;10350;51.280;12.400;2023-10-13T11:09:13;66.72;;;62.72;;
20381;SDS011;10350;51.280;12.400;2023-10-13T11:11:55;71.25;;;67.13;;
20381;SDS011;10350;51.280;12.400;2023-10-13T11:14:28;69.38;;;64.97;;
20381;SDS011;10350;51.280;12.400;2023-10-13T11:16:55;67.32;;;62.85;;
20381;SDS011;10350;51.280;12.400;2023-10-13T11:19:41;73.93;;;69.45;;
20381;SDS011;10350;51.280;12.400;2023-10-13T11:22:14;74.18;;;69.80;;
20381;SDS011;10350;51.280;12.400;2023-10-13T11:25:04;1999.90;;;999.90;;
20381;SDS011;10350;51.280;12.400;2023-10-13T11:27:34;1999.90;;;999.90;;
20381;SDS011;10350;51.280;12.400;2023-10-13T11:30:21;1999.90;;;999.90;;
20381;SDS011;10350;51.280;12.400;2023-10-13T11:33:09;1999.90;;;999.90;;
20381;SDS011;10350;51.280;12.400;2023-10-13T11:35:36;1999.90;;;999.90;;
20381;SDS011;10350;51.280;12.400;2023-10-13T11:38:17;1999.90;;;999.90;;
20381;SDS011;10350;51.280;12.400;2023-10-13T11:40:59;1999.90;;;999.90;;
20381;SDS011;10350;51.280;12.400;2023-10-13T11:43:26;1999.90;;;999.90;;
20381;SDS011;10350;51.280;12.400;2023-10-13T11:45:52;1999.90;;;999.90;;
20381;SDS011;10350;51.280;12.400;2023-10-13T11:48:38;1999.90;;;999.90;;
20381;SDS011;10350;51.280;12.400;2023-10-13T11:51:06;1999.90;;;999.90;;
20381;SDS011;10350;51.280;12.400;2023-10-13T11:53:33;1999.90;;;999.90;;
20381;SDS011;10350;51.280;12.400;2023-10-13T11:56:00;1999.90;;;999.90;;
20381;SDS011;10350;51.280;12.400;2023-10-13T11:58:26;1999.90;;;999.90;;
20381;SDS011;10350;51.280;12.400;2023-10-13T12:00:55;1999.90;;;999.90;;
20381;SDS011;10350;51.280;12.400;2023-10-13T12:03:45;1999.90;;;999.90;;
20381;SDS011;10350;51.280;12.400;2023-10-13T12:06:31;1999.90;;;999.90;;
20381;SDS011;10350;51.280;12.400;2023-10-13T12:08:58;1999.90;;;999.90;;
20381;SDS011;10350;51.280;12.400;2023-10-13T12:11:36;1999.90;;;999.90;;
20381;SDS011;10350;51.280;12.400;2023-10-13T12:14:04;1999.90;;;999.90;;
20381;SDS011;10350;51.280;12.400;2023-10-13T12:16:43;1999.90;;;999.90;;
20381;SDS011;10350;51.280;12.400;2023-10-13T12:19:13;1999.90;;;999.90;;
20381;SDS011;10350;51.280;12.400;2023-10-13T12:21:41;1999.90;;;999.90;;
20381;SDS011;10350;51.280;12.400;2023-10-13T12:24:08;1999.90;;;999.90;;
20381;SDS011;10350;51.280;12.400;2023-10-13T12:26:47;1999.90;;;999.90;;
20381;SDS011;10350;51.280;12.400;2023-10-13T12:29:13;1999.90;;;999.90;;
20381;SDS011;10350;51.280;12.400;2023-10-13T12:31:47;1999.90;;;999.90;;
20381;SDS011;10350;51.280;12.400;2023-10-13T12:34:26;1999.90;;;999.90;;
20381;SDS011;10350;51.280;12.400;2023-10-13T12:37:12;1999.90;;;999.90;;
20381;SDS011;10350;51.280;12.400;2023-10-13T12:39:57;1999.90;;;999.90;;
20381;SDS011;10350;51.280;12.400;2023-10-13T12:42:41;1999.90;;;999.90;;
20381;SDS011;10350;51.280;12.400;2023-10-13T12:45:26;1999.90;;;999.90;;
20381;SDS011;10350;51.280;12.400;2023-10-13T12:48:10;1999.90;;;999.90;;
20381;SDS011;10350;51.280;12.400;2023-10-13T12:50:55;1999.90;;;999.90;;
20381;SDS011;10350;51.280;12.400;2023-10-13T12:53:33;1999.90;;;999.90;;
20381;SDS011;10350;51.280;12.400;2023-10-13T12:55:59;1999.90;;;999.90;;
20381;SDS011;10350;51.280;12.400;2023-10-13T12:58:28;1999.90;;;999.90;;
20381;SDS011;10350;51.280;12.400;2023-10-13T13:00:59;1999.90;;;999.90;;
20381;SDS011;10350;51.280;12.400;2023-10-13T13:03:31;1999.90;;;999.90;;
20381;SDS011;10350;51.280;12.400;2023-10-13T13:05:57;1999.90;;;999.90;;
20381;SDS011;10350;51.280;12.400;2023-10-13T13:08:23;1999.90;;;999.90;;
20381;SDS011;10350;51.280;12.400;2023-10-13T13:10:50;1999.90;;;999.90;;
20381;SDS011;10350;51.280;12.400;2023-10-13T13:13:17;1999.90;;;999.90;;
20381;SDS011;10350;51.280;12.400;2023-10-13T13:15:49;1999.90;;;999.90;;
20381;SDS011;10350;51.280;12.400;2023-10-13T13:18:16;1999.90;;;999.90;;
20381;SDS011;10350;51.280;12.400;2023-10-13T13:20:42;1999.90;;;999.90;;
20381;SDS011;10350;51.280;12.400;2023-10-13T13:23:21;1999.90;;;999.90;;
20381;SDS011;10350;51.280;12.400;2023-10-13T13:25:50;1999.90;;;999.90;;
20381;SDS011;10350;51.280;12.400;2023-10-13T13:28:16;1999.90;;;999.90;;
20381;SDS011;10350;51.280;12.400;2023-10-13T13:30:43;1999.90;;;999.90;;
20381;SDS011;10350;51.280;12.400;2023-10-13T13:33:09;1999.90;;;999.90;;
20381;SDS011;10350;51.280;12.400;2023-10-13T13:35:39;1999.90;;;999.90;;
20381;SDS011;10350;51.280;12.400;2023-10-13T13:38:08;1999.90;;;999.90;;
20381;SDS011;10350;51.280;12.400;2023-10-13T13:41:00;1999.90;;;999.90;;
20381;SDS011;10350;51.280;12.400;2023-10-13T13:46:17;1999.90;;;999.90;;
20381;SDS011;10350;51.280;12.400;2023-10-13T13:48:44;1999.90;;;999.90;;
20381;SDS011;10350;51.280;12.400;2023-10-13T13:51:13;1999.90;;;999.90;;
20381;SDS011;10350;51.280;12.400;2023-10-13T13:53:42;1999.90;;;999.90;;
20381;SDS011;10350;51.280;12.400;2023-10-13T13:56:13;1999.90;;;999.90;;
20381;SDS011;10350;51.280;12.400;2023-10-13T13:58:42;1999.90;;;999.90;;
20381;SDS011;10350;51.280;12.400;2023-10-13T14:01:08;1999.90;;;999.90;;
20381;SDS011;10350;51.280;12.400;2023-10-13T14:03:41;1999.90;;;999.90;;
20381;SDS011;10350;51.280;12.400;2023-10-13T14:06:16;1999.90;;;999.90;;
20381;SDS011;10350;51.280;12.400;2023-10-13T14:08:46;1999.90;;;999.90;;
20381;SDS011;10350;51.280;12.400;2023-10-13T14:11:16;1999.90;;;999.90;;
20381;SDS011;10350;51.280;12.400;2023-10-13T14:14:01;1999.90;;;999.90;;
20381;SDS011;10350;51.280;12.400;2023-10-13T14:16:37;1999.90;;;999.90;;
20381;SDS011;10350;51.280;12.400;2023-10-13T14:19:03;1999.90;;;999.90;;
20381;SDS011;10350;51.280;12.400;2023-10-13T14:21:33;1999.90;;;999.90;;
20381;SDS011;10350;51.280;12.400;2023-10-13T14:24:00;1999.90;;;999.90;;
20381;SDS011;10350;51.280;12.400;2023-10-13T14:26:27;1999.90;;;999.90;;
20381;SDS011;10350;51.280;12.400;2023-10-13T14:28:53;1999.90;;;999.90;;
20381;SDS011;10350;51.280;12.400;2023-10-13T14:31:29;1999.90;;;999.90;;
20381;SDS011;10350;51.280;12.400;2023-10-13T14:33:55;1999.90;;;999.90;;
20381;SDS011;10350;51.280;12.400;2023-10-13T14:36:24;1999.90;;;999.90;;
20381;SDS011;10350;51.280;12.400;2023-10-13T14:38:54;1999.90;;;999.90;;
20381;SDS011;10350;51.280;12.400;2023-10-13T14:41:20;1999.90;;;999.90;;
20381;SDS011;10350;51.280;12.400;2023-10-13T14:43:46;1999.90;;;999.90;;
20381;SDS011;10350;51.280;12.400;2023-10-13T14:46:15;1037.32;;;535.13;;
20381;SDS011;10350;51.280;12.400;2023-10-13T14:48:44;1519.93;;;768.85;;
20381;SDS011;10350;51.280;12.400;2023-10-13T14:51:13;83.30;;;78.53;;
20381;SDS011;10350;51.280;12.400;2023-10-13T14:53:42;81.18;;;76.60;;